createdAt,value
2023-04-23T00:01:22.256Z,3.75
2023-04-23T00:03:51.570Z,3.90
2023-04-23T00:06:19.735Z,4.70
2023-04-23T00:08:48.674Z,3.15
2023-04-23T00:11:20.047Z,4.25
2023-04-23T00:13:50.161Z,4.13
2023-04-23T00:16:17.829Z,3.53
2023-04-23T00:18:45.580Z,3.17
2023-04-23T00:21:13.953Z,2.60
2023-04-23T00:23:41.811Z,3.72
2023-04-23T00:26:09.376Z,4.18
2023-04-23T00:28:36.989Z,2.70
2023-04-23T00:31:04.475Z,2.50
2023-04-23T00:33:32.022Z,1.90
2023-04-23T00:35:59.508Z,1.75
2023-04-23T00:38:27.295Z,1.67
2023-04-23T00:40:55.123Z,1.98
2023-04-23T00:43:22.688Z,2.10
2023-04-23T00:45:50.256Z,2.33
2023-04-23T00:48:17.767Z,1.58
2023-04-23T00:50:46.094Z,1.67
2023-04-23T00:53:13.673Z,1.55
2023-04-23T00:55:41.433Z,1.60
2023-04-23T00:58:09.373Z,1.85
2023-04-23T01:00:40.652Z,1.70
2023-04-23T01:03:08.252Z,1.67
2023-04-23T01:05:36.275Z,1.60
2023-04-23T01:08:03.767Z,1.98
2023-04-23T01:10:33.338Z,1.55
2023-04-23T01:13:00.893Z,1.35
2023-04-23T01:15:28.399Z,1.98
2023-04-23T01:17:58.017Z,2.13
2023-04-23T01:20:25.637Z,2.08
2023-04-23T01:22:53.812Z,2.25
2023-04-23T01:25:21.357Z,2.67
2023-04-23T01:27:52.261Z,4.00
2023-04-23T01:30:19.900Z,2.45
2023-04-23T01:32:48.184Z,1.60
2023-04-23T01:35:16.231Z,1.75
2023-04-23T01:37:44.330Z,1.48
2023-04-23T01:40:12.143Z,1.92
2023-04-23T01:42:40.443Z,2.35
2023-04-23T01:45:08.674Z,1.98
2023-04-23T01:47:36.834Z,2.15
2023-04-23T01:50:05.972Z,1.92
2023-04-23T01:52:33.844Z,1.88
2023-04-23T01:55:02.664Z,2.60
2023-04-23T01:57:30.267Z,2.40
2023-04-23T02:00:01.205Z,2.55
2023-04-23T02:02:30.620Z,2.92
2023-04-23T02:05:01.415Z,3.03
2023-04-23T02:07:29.087Z,2.55
2023-04-23T02:09:56.640Z,2.80
2023-04-23T02:12:24.164Z,2.90
2023-04-23T02:14:51.712Z,3.08
2023-04-23T02:17:21.072Z,3.17
2023-04-23T02:19:48.668Z,4.13
2023-04-23T02:22:17.161Z,3.17
2023-04-23T02:24:45.285Z,3.15
2023-04-23T02:27:12.758Z,3.05
2023-04-23T02:29:43.514Z,3.08
2023-04-23T02:32:12.859Z,2.85
2023-04-23T02:34:40.597Z,3.35
2023-04-23T02:37:08.423Z,4.18
2023-04-23T02:39:35.941Z,4.53
2023-04-23T02:42:03.389Z,2.92
2023-04-23T02:44:31.194Z,3.13
2023-04-23T02:46:59.742Z,3.78
2023-04-23T02:49:27.402Z,5.22
2023-04-23T02:51:54.947Z,3.70
2023-04-23T02:54:22.793Z,3.72
2023-04-23T02:56:50.452Z,2.90
2023-04-23T02:59:17.880Z,2.85
2023-04-23T03:01:45.947Z,3.17
2023-04-23T03:04:13.851Z,2.85
2023-04-23T03:06:42.546Z,2.63
2023-04-23T03:09:11.203Z,2.80
2023-04-23T03:11:38.725Z,2.10
2023-04-23T03:14:06.779Z,2.28
2023-04-23T03:16:34.964Z,2.67
2023-04-23T03:19:02.783Z,3.03
2023-04-23T03:21:31.852Z,1.83
2023-04-23T03:23:59.369Z,2.38
2023-04-23T03:26:26.848Z,3.42
2023-04-23T03:28:54.445Z,3.85
2023-04-23T03:31:22.543Z,3.78
2023-04-23T03:33:50.373Z,4.93
2023-04-23T03:36:17.929Z,3.92
2023-04-23T03:38:45.553Z,4.45
2023-04-23T03:41:13.366Z,4.63
2023-04-23T03:43:40.831Z,4.50
2023-04-23T03:46:08.360Z,3.97
2023-04-23T03:48:35.857Z,3.92
2023-04-23T03:51:03.335Z,5.07
2023-04-23T03:53:30.831Z,4.15
2023-04-23T03:55:58.927Z,4.93
2023-04-23T03:58:29.367Z,4.75
2023-04-23T04:00:57.015Z,4.40
2023-04-23T04:03:24.666Z,4.20
2023-04-23T04:05:52.424Z,3.83
2023-04-23T04:08:20.002Z,5.68
2023-04-23T04:10:47.907Z,3.67
2023-04-23T04:13:16.704Z,3.80
2023-04-23T04:15:44.890Z,4.38
2023-04-23T04:18:12.617Z,4.10
2023-04-23T04:20:40.138Z,3.85
2023-04-23T04:23:07.800Z,4.72
2023-04-23T04:25:40.440Z,4.38
2023-04-23T04:28:10.063Z,5.78
2023-04-23T04:30:38.792Z,4.55
2023-04-23T04:33:06.307Z,4.85
2023-04-23T04:35:34.996Z,4.60
2023-04-23T04:38:08.157Z,4.72
2023-04-23T04:43:03.569Z,5.75
2023-04-23T04:45:34.117Z,4.47
2023-04-23T04:48:03.379Z,5.03
2023-04-23T04:50:31.002Z,5.22
2023-04-23T04:52:58.465Z,4.82
2023-04-23T04:55:26.112Z,4.22
2023-04-23T04:57:56.938Z,4.57
2023-04-23T05:00:28.887Z,4.90
2023-04-23T05:02:57.683Z,5.10
2023-04-23T05:05:25.930Z,6.80
2023-04-23T05:07:55.374Z,5.68
2023-04-23T05:10:22.914Z,4.55
2023-04-23T05:12:52.327Z,5.90
2023-04-23T05:15:19.889Z,4.90
2023-04-23T05:17:48.108Z,5.38
2023-04-23T05:20:16.092Z,7.03
2023-04-23T05:22:44.197Z,6.28
2023-04-23T05:25:16.452Z,5.22
2023-04-23T05:27:43.991Z,6.67
2023-04-23T05:30:11.896Z,5.95
2023-04-23T05:32:39.859Z,6.63
2023-04-23T05:35:07.825Z,5.50
2023-04-23T05:37:35.446Z,5.72
2023-04-23T05:40:03.461Z,6.20
2023-04-23T05:42:31.008Z,6.10
2023-04-23T05:44:58.516Z,5.43
2023-04-23T05:47:26.079Z,6.43
2023-04-23T05:49:53.599Z,6.03
2023-04-23T05:52:21.100Z,4.15
2023-04-23T05:54:48.672Z,7.55
2023-04-23T05:57:16.184Z,6.07
2023-04-23T05:59:43.719Z,5.38
2023-04-23T06:02:11.729Z,5.30
2023-04-23T06:04:39.811Z,6.22
2023-04-23T06:07:07.607Z,5.55
2023-04-23T06:09:35.271Z,4.60
2023-04-23T06:12:03.993Z,4.90
2023-04-23T06:14:31.588Z,6.80
2023-04-23T06:16:59.074Z,4.00
2023-04-23T06:19:28.287Z,5.00
2023-04-23T06:21:55.778Z,5.07
2023-04-23T06:24:23.266Z,4.82
2023-04-23T06:26:50.952Z,5.82
2023-04-23T06:29:18.431Z,5.70
2023-04-23T06:31:46.291Z,4.97
2023-04-23T06:34:13.874Z,4.50
2023-04-23T06:36:41.361Z,5.07
2023-04-23T06:39:14.419Z,4.88
2023-04-23T06:41:41.885Z,3.75
2023-04-23T06:44:09.327Z,5.60
2023-04-23T06:46:37.098Z,4.25
2023-04-23T06:49:04.707Z,4.50
2023-04-23T06:51:32.806Z,4.05
2023-04-23T06:54:00.338Z,4.70
2023-04-23T06:56:28.869Z,4.88
2023-04-23T06:58:56.436Z,4.25
2023-04-23T07:01:24.414Z,5.00
2023-04-23T07:03:54.996Z,3.72
2023-04-23T07:06:22.496Z,4.05
2023-04-23T07:08:50.300Z,4.32
2023-04-23T07:11:17.750Z,4.43
2023-04-23T07:13:45.229Z,3.85
2023-04-23T07:16:13.867Z,5.25
2023-04-23T07:18:41.345Z,3.92
2023-04-23T07:21:08.831Z,3.85
2023-04-23T07:23:38.889Z,4.97
2023-04-23T07:26:09.107Z,4.97
2023-04-23T07:28:36.564Z,4.18
2023-04-23T07:31:06.335Z,3.70
2023-04-23T07:33:33.822Z,3.33
2023-04-23T07:36:01.534Z,3.58
2023-04-23T07:38:29.009Z,3.88
2023-04-23T07:40:56.821Z,3.88
2023-04-23T07:43:24.595Z,3.85
2023-04-23T07:45:52.183Z,3.10
2023-04-23T07:48:19.889Z,3.15
2023-04-23T07:50:47.365Z,3.45
2023-04-23T07:53:16.603Z,3.50
2023-04-23T07:55:44.017Z,3.35
2023-04-23T07:58:11.663Z,4.78
2023-04-23T08:00:39.294Z,2.97
2023-04-23T08:03:07.000Z,3.63
2023-04-23T08:05:35.249Z,2.95
2023-04-23T08:08:03.212Z,3.38
2023-04-23T08:10:33.159Z,3.88
2023-04-23T08:13:03.574Z,3.30
2023-04-23T08:15:31.058Z,3.72
2023-04-23T08:17:58.610Z,3.10
2023-04-23T08:20:26.576Z,3.78
2023-04-23T08:22:54.416Z,3.53
2023-04-23T08:25:22.138Z,4.28
2023-04-23T08:27:49.594Z,3.80
2023-04-23T08:30:17.140Z,3.88
2023-04-23T08:32:44.723Z,4.28
2023-04-23T08:35:13.441Z,4.63
2023-04-23T08:37:43.577Z,5.13
2023-04-23T08:40:11.669Z,4.97
2023-04-23T08:42:39.426Z,5.25
2023-04-23T08:45:07.401Z,5.15
2023-04-23T08:47:35.937Z,5.05
2023-04-23T08:50:06.217Z,5.72
2023-04-23T08:52:36.496Z,5.15
2023-04-23T08:55:08.679Z,6.22
2023-04-23T08:57:36.543Z,5.45
2023-04-23T09:00:06.786Z,6.43
2023-04-23T09:02:37.947Z,6.38
2023-04-23T09:05:05.784Z,6.22
2023-04-23T09:07:33.980Z,6.07
2023-04-23T09:10:03.206Z,4.93
2023-04-23T09:12:30.818Z,5.63
2023-04-23T09:14:58.347Z,6.78
2023-04-23T09:17:29.071Z,6.00
2023-04-23T09:19:56.601Z,5.90
2023-04-23T09:22:40.566Z,5.18
2023-04-23T09:25:09.231Z,5.70
2023-04-23T09:27:39.790Z,5.38
2023-04-23T09:30:11.491Z,5.18
2023-04-23T09:32:40.119Z,5.35
2023-04-23T09:35:09.059Z,4.53
2023-04-23T09:37:37.068Z,4.15
2023-04-23T09:40:05.977Z,5.00
2023-04-23T09:42:33.836Z,4.82
2023-04-23T09:45:06.316Z,5.85
2023-04-23T09:47:35.326Z,5.40
2023-04-23T09:50:02.872Z,4.90
2023-04-23T09:52:32.263Z,6.03
2023-04-23T09:55:02.864Z,5.15
2023-04-23T09:57:30.421Z,5.93
2023-04-23T10:00:11.133Z,6.22
2023-04-23T10:02:46.835Z,7.40
2023-04-23T10:05:24.178Z,4.70
2023-04-23T10:07:54.228Z,4.38
2023-04-23T10:10:21.873Z,4.25
2023-04-23T10:12:54.369Z,4.82
2023-04-23T10:17:51.852Z,3.88
2023-04-23T10:20:21.682Z,5.53
2023-04-23T10:22:49.544Z,4.47
2023-04-23T10:25:19.856Z,3.58
2023-04-23T10:27:54.449Z,4.60
2023-04-23T10:30:25.276Z,5.10
2023-04-23T10:32:54.692Z,3.88
2023-04-23T10:35:22.300Z,4.72
2023-04-23T10:37:50.249Z,5.07
2023-04-23T10:40:22.590Z,5.32
2023-04-23T10:42:50.269Z,6.07
2023-04-23T10:45:25.306Z,5.03
2023-04-23T10:47:54.327Z,6.13
2023-04-23T10:50:29.146Z,5.85
2023-04-23T10:52:58.516Z,4.28
2023-04-23T10:55:30.884Z,4.22
2023-04-23T10:58:01.208Z,4.32
2023-04-23T11:00:31.514Z,4.53
2023-04-23T11:02:59.226Z,4.00
2023-04-23T11:05:28.890Z,4.63
2023-04-23T11:10:52.360Z,4.78
2023-04-23T11:13:29.541Z,3.92
2023-04-23T11:16:16.245Z,4.88
2023-04-23T11:18:56.497Z,4.22
2023-04-23T11:21:23.985Z,3.97
2023-04-23T11:23:51.486Z,4.35
2023-04-23T11:26:19.528Z,5.10
2023-04-23T11:28:48.042Z,4.68
2023-04-23T11:31:15.998Z,3.97
2023-04-23T11:33:46.197Z,3.40
2023-04-23T11:36:16.274Z,5.45
2023-04-23T11:38:43.918Z,5.32
2023-04-23T11:41:11.385Z,4.47
2023-04-23T11:43:39.328Z,3.95
2023-04-23T11:46:09.446Z,4.47
2023-04-23T11:48:36.940Z,4.68
2023-04-23T11:51:05.364Z,2.90
2023-04-23T11:53:32.889Z,3.67
2023-04-23T11:56:00.411Z,3.97
2023-04-23T11:58:28.164Z,4.28
2023-04-23T12:01:01.252Z,3.80
2023-04-23T12:03:29.931Z,4.47
2023-04-23T12:06:04.433Z,3.45
2023-04-23T12:08:40.994Z,3.38
2023-04-23T12:11:08.419Z,5.35
2023-04-23T12:13:36.287Z,4.07
2023-04-23T12:16:05.393Z,4.03
2023-04-23T12:18:54.600Z,4.55
2023-04-23T12:21:23.846Z,3.67
2023-04-23T12:23:53.137Z,2.67
2023-04-23T12:26:21.090Z,4.07
2023-04-23T12:28:52.375Z,3.97
2023-04-23T12:31:24.024Z,3.97
2023-04-23T12:34:04.960Z,4.25
2023-04-23T12:36:33.025Z,4.00
2023-04-23T12:39:19.491Z,4.05
2023-04-23T12:41:46.935Z,3.10
2023-04-23T12:44:14.714Z,3.72
2023-04-23T12:46:42.301Z,3.65
2023-04-23T12:49:09.782Z,4.25
2023-04-23T12:51:37.297Z,3.53
2023-04-23T12:54:08.172Z,3.38
2023-04-23T12:56:36.956Z,3.97
2023-04-23T12:59:07.797Z,4.35
2023-04-23T13:01:35.326Z,5.35
2023-04-23T13:04:02.858Z,6.32
2023-04-23T13:06:30.400Z,5.18
2023-04-23T13:08:58.028Z,3.90
2023-04-23T13:11:25.952Z,3.75
2023-04-23T13:13:53.739Z,6.38
2023-04-23T13:16:21.249Z,4.68
2023-04-23T13:18:49.014Z,5.60
2023-04-23T13:21:16.559Z,5.22
2023-04-23T13:23:44.113Z,4.95
2023-04-23T13:26:11.620Z,4.93
2023-04-23T13:28:39.191Z,4.03
2023-04-23T13:31:07.438Z,3.47
2023-04-23T13:33:34.969Z,3.63
2023-04-23T13:36:03.694Z,3.35
2023-04-23T13:38:31.723Z,3.72
2023-04-23T13:40:59.941Z,3.13
2023-04-23T13:43:27.400Z,4.05
2023-04-23T13:45:55.209Z,2.97
2023-04-23T13:48:23.529Z,3.45
2023-04-23T13:50:51.031Z,2.72
2023-04-23T13:53:18.776Z,3.35
2023-04-23T13:55:46.342Z,3.65
2023-04-23T13:58:14.155Z,4.32
2023-04-23T14:00:45.689Z,4.70
2023-04-23T14:03:13.339Z,3.72
2023-04-23T14:05:40.949Z,3.58
2023-04-23T14:08:08.495Z,4.18
2023-04-23T14:10:36.657Z,3.58
2023-04-23T14:13:05.595Z,3.85
2023-04-23T14:15:33.762Z,5.05
2023-04-23T14:18:01.405Z,4.53
2023-04-23T14:20:28.966Z,5.57
2023-04-23T14:22:58.164Z,5.75
2023-04-23T14:25:30.081Z,4.78
2023-04-23T14:28:06.099Z,6.50
2023-04-23T14:30:35.447Z,4.95
2023-04-23T14:33:03.233Z,5.88
2023-04-23T14:35:41.828Z,5.10
2023-04-23T14:38:12.004Z,5.88
2023-04-23T14:40:39.543Z,5.80
2023-04-23T14:43:15.005Z,6.28
2023-04-23T14:45:43.351Z,5.78
2023-04-23T14:48:14.137Z,5.57
2023-04-23T14:50:41.691Z,6.82
2023-04-23T14:53:11.241Z,4.47
2023-04-23T14:55:40.474Z,4.90
2023-04-23T14:58:08.074Z,4.85
2023-04-23T15:00:35.646Z,3.90
2023-04-23T15:03:07.615Z,4.82
2023-04-23T15:05:35.493Z,5.43
2023-04-23T15:08:03.181Z,6.72
2023-04-23T15:10:30.955Z,5.65
2023-04-23T15:13:33.528Z,5.53
2023-04-23T15:16:06.362Z,5.50
2023-04-23T15:18:34.615Z,6.25
2023-04-23T15:21:05.093Z,5.40
2023-04-23T15:23:32.657Z,5.07
2023-04-23T15:26:00.535Z,6.03
2023-04-23T15:28:28.027Z,6.40
2023-04-23T15:30:55.529Z,6.30
2023-04-23T15:33:23.257Z,7.20
2023-04-23T15:35:51.762Z,6.88
2023-04-23T15:38:19.467Z,6.20
2023-04-23T15:40:47.004Z,4.82
2023-04-23T15:43:14.740Z,5.95
2023-04-23T15:45:43.615Z,6.45
2023-04-23T15:48:11.887Z,6.40
2023-04-23T15:50:39.368Z,6.40
2023-04-23T15:53:07.869Z,6.28
2023-04-23T15:55:35.395Z,5.35
2023-04-23T15:58:04.212Z,5.55
2023-04-23T16:00:32.717Z,5.75
2023-04-23T16:03:02.180Z,5.90
2023-04-23T16:05:30.586Z,7.35
2023-04-23T16:07:58.216Z,6.30
2023-04-23T16:10:27.105Z,6.70
2023-04-23T16:12:55.738Z,5.90
2023-04-23T16:15:23.225Z,5.93
2023-04-23T16:17:53.222Z,6.65
2023-04-23T16:20:20.889Z,6.43
2023-04-23T16:22:48.342Z,8.15
2023-04-23T16:25:18.283Z,8.20
2023-04-23T16:27:45.752Z,8.05
2023-04-23T16:30:13.464Z,6.18
2023-04-23T16:32:41.004Z,7.05
2023-04-23T16:35:09.017Z,6.97
2023-04-23T16:37:36.876Z,6.60
2023-04-23T16:40:06.185Z,6.20
2023-04-23T16:42:33.764Z,7.65
2023-04-23T16:45:03.706Z,6.18
2023-04-23T16:47:31.625Z,5.50
2023-04-23T16:49:59.414Z,5.85
2023-04-23T16:52:27.768Z,5.93
2023-04-23T16:54:55.305Z,6.82
2023-04-23T16:57:23.105Z,6.65
2023-04-23T16:59:52.031Z,6.90
2023-04-23T17:02:20.401Z,6.20
2023-04-23T17:04:48.444Z,6.05
2023-04-23T17:07:16.127Z,5.47
2023-04-23T17:09:44.093Z,4.45
2023-04-23T17:12:15.127Z,5.82
2023-04-23T17:14:42.862Z,6.65
2023-04-23T17:17:10.563Z,5.43
2023-04-23T17:19:38.003Z,5.53
2023-04-23T17:22:06.952Z,6.85
2023-04-23T17:24:35.222Z,5.38
2023-04-23T17:27:04.120Z,5.85
2023-04-23T17:29:31.554Z,5.43
2023-04-23T17:31:59.200Z,5.80
2023-04-23T17:34:26.758Z,4.82
2023-04-23T17:36:54.217Z,5.60
2023-04-23T17:39:23.558Z,5.03
2023-04-23T17:41:51.051Z,2.67
2023-04-23T17:44:18.629Z,3.17
2023-04-23T17:46:46.257Z,2.72
2023-04-23T17:49:13.704Z,3.15
2023-04-23T17:51:41.253Z,3.08
2023-04-23T17:54:08.870Z,3.72
2023-04-23T17:56:36.676Z,3.65
2023-04-23T17:59:04.568Z,3.58
2023-04-23T18:01:32.718Z,4.60
2023-04-23T18:04:00.752Z,3.55
2023-04-23T18:06:28.366Z,4.07
2023-04-23T18:08:56.070Z,4.07
2023-04-23T18:11:23.603Z,4.30
2023-04-23T18:13:54.021Z,4.35
2023-04-23T18:16:21.862Z,3.95
2023-04-23T18:18:50.178Z,4.00
2023-04-23T18:21:18.802Z,5.00
2023-04-23T18:23:46.953Z,3.97
2023-04-23T18:26:14.674Z,4.93
2023-04-23T18:28:42.070Z,3.53
2023-04-23T18:31:09.778Z,3.38
2023-04-23T18:33:42.589Z,2.28
2023-04-23T18:36:40.014Z,2.70
2023-04-23T18:39:08.153Z,3.10
2023-04-23T18:41:36.838Z,2.92
2023-04-23T18:44:04.359Z,3.38
2023-04-23T18:46:32.887Z,3.85
2023-04-23T18:49:01.861Z,3.95
2023-04-23T18:51:40.674Z,4.00
2023-04-23T18:54:08.151Z,3.55
2023-04-23T18:56:35.768Z,5.57
2023-04-23T18:59:03.654Z,4.57
2023-04-23T19:01:31.322Z,4.32
2023-04-23T19:03:58.939Z,5.32
2023-04-23T19:06:27.627Z,6.38
2023-04-23T19:08:55.142Z,6.25
2023-04-23T19:11:22.598Z,5.43
2023-04-23T19:13:50.201Z,6.05
2023-04-23T19:16:19.039Z,6.47
2023-04-23T19:18:46.606Z,6.07
2023-04-23T19:21:14.349Z,5.40
2023-04-23T19:23:41.784Z,7.28
2023-04-23T19:26:10.046Z,5.28
2023-04-23T19:28:40.692Z,4.35
2023-04-23T19:31:08.395Z,6.53
2023-04-23T19:33:36.064Z,5.13
2023-04-23T19:36:03.658Z,5.57
2023-04-23T19:38:31.263Z,4.85
2023-04-23T19:40:59.563Z,4.38
2023-04-23T19:43:27.086Z,4.18
2023-04-23T19:45:54.967Z,3.50
2023-04-23T19:48:23.208Z,3.78
2023-04-23T19:50:51.359Z,4.43
2023-04-23T19:53:21.826Z,4.18
2023-04-23T19:55:49.290Z,6.35
2023-04-23T19:58:19.012Z,4.68
2023-04-23T20:00:46.578Z,20.83
2023-04-23T20:03:14.195Z,16.17
2023-04-23T20:05:44.905Z,7.20
2023-04-23T20:08:15.788Z,12.85
2023-04-23T20:10:43.865Z,9.25
2023-04-23T20:13:11.393Z,8.80
2023-04-23T20:15:39.140Z,8.25
2023-04-23T20:18:08.593Z,5.22
2023-04-23T20:20:37.360Z,5.65
2023-04-23T20:23:05.260Z,4.18
2023-04-23T20:25:33.876Z,4.60
2023-04-23T20:28:02.051Z,3.95
2023-04-23T20:30:29.834Z,4.88
2023-04-23T20:32:58.825Z,4.22
2023-04-23T20:35:28.726Z,3.80
2023-04-23T20:37:56.960Z,3.55
2023-04-23T20:40:25.951Z,3.35
2023-04-23T20:42:53.910Z,3.58
2023-04-23T20:45:23.002Z,4.43
2023-04-23T20:47:50.809Z,4.95
2023-04-23T20:50:18.489Z,4.22
2023-04-23T20:52:46.692Z,6.63
2023-04-23T20:55:14.202Z,4.13
2023-04-23T20:57:42.324Z,5.93
2023-04-23T21:00:12.555Z,5.65
2023-04-23T21:02:40.340Z,6.20
2023-04-23T21:05:08.601Z,4.65
2023-04-23T21:07:38.142Z,4.22
2023-04-23T21:10:05.918Z,3.78
2023-04-23T21:12:33.723Z,5.03
2023-04-23T21:15:01.790Z,4.68
2023-04-23T21:17:29.312Z,5.45
2023-04-23T21:19:57.129Z,3.83
2023-04-23T21:22:24.625Z,3.03
2023-04-23T21:24:52.116Z,2.60
2023-04-23T21:27:22.308Z,3.05
2023-04-23T21:29:50.106Z,3.70
2023-04-23T21:32:17.899Z,2.10
2023-04-23T21:34:45.362Z,2.47
2023-04-23T21:37:12.891Z,2.25
2023-04-23T21:39:40.741Z,2.22
2023-04-23T21:42:08.439Z,2.90
2023-04-23T21:44:37.580Z,4.43
2023-04-23T21:47:05.562Z,4.45
2023-04-23T21:49:33.478Z,3.97
2023-04-23T21:52:02.757Z,3.47
2023-04-23T21:54:30.453Z,4.47
2023-04-23T21:56:58.192Z,4.07
2023-04-23T21:59:27.636Z,4.22
2023-04-23T22:01:55.293Z,3.85
2023-04-23T22:04:23.220Z,3.90
2023-04-23T22:06:52.039Z,2.85
2023-04-23T22:09:19.546Z,5.00
2023-04-23T22:12:01.059Z,3.17
2023-04-23T22:14:29.276Z,3.10
2023-04-23T22:16:59.280Z,3.72
2023-04-23T22:19:26.996Z,3.00
2023-04-23T22:21:55.048Z,4.18
2023-04-23T22:24:23.141Z,4.25
2023-04-23T22:26:50.840Z,3.30
2023-04-23T22:29:18.334Z,3.33
2023-04-23T22:31:46.034Z,3.63
2023-04-23T22:34:13.560Z,3.53
2023-04-23T22:36:43.735Z,3.85
2023-04-23T22:39:11.446Z,3.22
2023-04-23T22:41:41.014Z,3.70
2023-04-23T22:44:11.089Z,4.07
2023-04-23T22:46:39.421Z,3.75
2023-04-23T22:49:08.886Z,3.92
2023-04-23T22:51:39.389Z,3.17
2023-04-23T22:54:06.956Z,3.88
2023-04-23T22:56:35.000Z,3.22
2023-04-23T22:59:03.831Z,3.30
2023-04-23T23:01:32.079Z,3.60
2023-04-23T23:03:59.741Z,3.53
2023-04-23T23:06:30.013Z,3.22
2023-04-23T23:08:57.678Z,4.53
2023-04-23T23:11:26.010Z,4.97
2023-04-23T23:13:57.114Z,4.03
2023-04-23T23:16:24.941Z,3.42
2023-04-23T23:18:53.868Z,4.18
2023-04-23T23:21:21.492Z,5.82
2023-04-23T23:23:49.095Z,3.85
2023-04-23T23:26:19.778Z,4.05
2023-04-23T23:28:47.335Z,5.90
2023-04-23T23:31:15.271Z,4.93
2023-04-23T23:33:42.802Z,4.68
2023-04-23T23:36:10.925Z,5.07
2023-04-23T23:38:38.407Z,4.95
2023-04-23T23:41:05.871Z,3.33
2023-04-23T23:43:33.433Z,3.05
2023-04-23T23:46:00.924Z,2.90
2023-04-23T23:48:28.434Z,2.20
2023-04-23T23:50:56.002Z,4.10
2023-04-23T23:53:23.688Z,2.70
2023-04-23T23:55:53.942Z,2.60
2023-04-23T23:58:22.616Z,2.28
